createdAt,value
2022-09-16T00:02:40.104Z,15.60
2022-09-16T00:05:31.878Z,22.15
2022-09-16T00:08:24.166Z,15.43
2022-09-16T00:11:15.629Z,21.52
2022-09-16T00:14:06.730Z,16.50
2022-09-16T00:16:57.247Z,21.02
2022-09-16T00:19:48.558Z,16.30
2022-09-16T00:22:39.288Z,19.77
2022-09-16T00:25:30.038Z,20.88
2022-09-16T00:28:23.921Z,15.85
2022-09-16T00:31:14.692Z,15.65
2022-09-16T00:34:05.266Z,17.83
2022-09-16T00:36:56.183Z,11.82
2022-09-16T00:39:46.794Z,9.65
2022-09-16T00:42:42.323Z,17.05
2022-09-16T00:45:33.550Z,15.85
2022-09-16T00:48:25.760Z,15.10
2022-09-16T00:51:17.591Z,21.90
2022-09-16T00:54:11.196Z,12.48
2022-09-16T00:57:05.603Z,13.40
2022-09-16T00:59:57.804Z,18.42
2022-09-16T01:02:50.179Z,11.32
2022-09-16T01:05:41.400Z,15.75
2022-09-16T01:08:32.227Z,13.60
2022-09-16T01:11:23.035Z,12.30
2022-09-16T01:14:35.586Z,17.42
2022-09-16T01:17:38.367Z,19.15
2022-09-16T01:20:34.675Z,20.48
2022-09-16T01:24:09.366Z,13.02
2022-09-16T01:27:34.343Z,12.68
2022-09-16T01:30:46.713Z,15.43
2022-09-16T01:33:44.573Z,11.25
2022-09-16T01:36:38.409Z,18.95
2022-09-16T01:39:50.565Z,17.25
2022-09-16T01:43:13.073Z,10.75
2022-09-16T01:46:27.516Z,13.45
2022-09-16T01:49:25.163Z,18.13
2022-09-16T01:52:39.925Z,11.93
2022-09-16T01:55:58.920Z,13.27
2022-09-16T01:59:29.054Z,11.15
2022-09-16T02:02:23.576Z,13.05
2022-09-16T02:05:19.459Z,13.70
2022-09-16T02:08:17.592Z,18.45
2022-09-16T02:11:11.213Z,11.60
2022-09-16T02:14:11.592Z,12.52
2022-09-16T02:17:17.814Z,15.85
2022-09-16T02:20:21.500Z,7.88
2022-09-16T02:23:18.822Z,16.10
2022-09-16T02:26:12.066Z,14.82
2022-09-16T02:29:06.232Z,16.17
2022-09-16T02:32:00.091Z,16.55
2022-09-16T02:34:53.727Z,12.00
2022-09-16T02:37:50.756Z,15.25
2022-09-16T02:40:49.403Z,16.55
2022-09-16T02:43:41.453Z,13.07
2022-09-16T02:47:06.084Z,13.82
2022-09-16T02:50:04.139Z,14.05
2022-09-16T02:53:25.717Z,13.65
2022-09-16T02:56:32.209Z,17.58
2022-09-16T02:59:23.893Z,16.92
2022-09-16T03:02:14.900Z,11.85
2022-09-16T03:05:06.874Z,15.88
2022-09-16T03:07:57.348Z,9.70
2022-09-16T03:10:50.149Z,12.88
2022-09-16T03:13:51.847Z,11.68
2022-09-16T03:16:56.236Z,9.43
2022-09-16T03:20:08.032Z,8.88
2022-09-16T03:23:09.639Z,18.33
2022-09-16T03:26:29.055Z,14.73
2022-09-16T03:29:25.782Z,14.32
2022-09-16T03:32:51.570Z,10.48
2022-09-16T03:35:48.430Z,11.15
2022-09-16T03:38:40.134Z,11.55
2022-09-16T03:41:35.467Z,10.63
2022-09-16T03:44:39.004Z,15.18
2022-09-16T03:47:31.099Z,10.88
2022-09-16T03:50:22.122Z,13.65
2022-09-16T03:53:12.483Z,7.47
2022-09-16T03:56:02.458Z,9.73
2022-09-16T03:58:53.575Z,15.43
2022-09-16T04:01:44.538Z,8.32
2022-09-16T04:04:37.182Z,13.73
2022-09-16T04:07:28.221Z,11.48
2022-09-16T04:10:19.995Z,7.72
2022-09-16T04:13:11.315Z,10.10
2022-09-16T04:16:03.919Z,9.77
2022-09-16T04:18:55.169Z,10.07
2022-09-16T04:21:46.926Z,7.47
2022-09-16T04:24:39.051Z,5.93
2022-09-16T04:27:30.358Z,10.75
2022-09-16T04:30:21.898Z,6.78
2022-09-16T04:33:12.091Z,7.55
2022-09-16T04:36:19.363Z,10.00
2022-09-16T04:39:12.728Z,7.90
2022-09-16T04:42:07.035Z,7.97
2022-09-16T04:44:57.957Z,11.80
2022-09-16T04:47:48.533Z,11.35
2022-09-16T04:50:41.029Z,8.50
2022-09-16T04:56:36.804Z,9.23
2022-09-16T04:59:28.305Z,9.55
2022-09-16T05:02:18.935Z,9.77
2022-09-16T05:05:14.752Z,12.52
2022-09-16T05:08:05.606Z,7.28
2022-09-16T05:10:56.114Z,18.52
2022-09-16T05:13:48.438Z,8.02
2022-09-16T05:16:39.128Z,16.48
2022-09-16T05:19:30.451Z,7.70
2022-09-16T05:22:21.530Z,6.05
2022-09-16T05:25:12.398Z,16.23
2022-09-16T05:28:05.130Z,8.32
2022-09-16T05:30:56.643Z,9.00
2022-09-16T05:33:49.334Z,10.52
2022-09-16T05:36:40.761Z,10.32
2022-09-16T05:39:31.937Z,10.98
2022-09-16T05:42:22.129Z,12.85
2022-09-16T05:45:12.969Z,6.30
2022-09-16T05:48:03.074Z,8.80
2022-09-16T05:51:07.861Z,20.33
2022-09-16T05:54:00.667Z,10.77
2022-09-16T05:56:52.157Z,5.32
2022-09-16T05:59:44.529Z,16.10
2022-09-16T06:02:35.438Z,7.90
2022-09-16T06:05:25.626Z,10.27
2022-09-16T06:08:17.356Z,9.20
2022-09-16T06:11:11.990Z,11.95
2022-09-16T06:14:07.484Z,10.93
2022-09-16T06:16:58.232Z,20.58
2022-09-16T06:19:51.371Z,9.07
2022-09-16T06:22:42.445Z,8.75
2022-09-16T06:25:34.364Z,12.15
2022-09-16T06:28:24.574Z,17.13
2022-09-16T06:31:27.290Z,11.00
2022-09-16T06:34:20.351Z,14.52
2022-09-16T06:37:14.114Z,12.15
2022-09-16T06:40:06.266Z,10.07
2022-09-16T06:43:00.305Z,11.98
2022-09-16T06:45:53.744Z,9.07
2022-09-16T06:48:46.991Z,13.98
2022-09-16T06:51:37.436Z,7.93
2022-09-16T06:54:28.868Z,12.90
2022-09-16T06:57:28.395Z,22.25
2022-09-16T07:00:20.021Z,13.52
2022-09-16T07:03:10.622Z,15.05
2022-09-16T07:06:03.427Z,10.82
2022-09-16T07:09:00.610Z,12.98
2022-09-16T07:11:51.300Z,10.93
2022-09-16T07:14:41.753Z,8.02
2022-09-16T07:17:32.340Z,14.73
2022-09-16T07:20:23.998Z,13.13
2022-09-16T07:23:15.464Z,15.57
2022-09-16T07:26:07.414Z,13.00
2022-09-16T07:29:02.235Z,13.95
2022-09-16T07:31:53.300Z,11.75
2022-09-16T07:34:43.170Z,20.52
2022-09-16T07:37:34.043Z,14.50
2022-09-16T07:40:29.626Z,13.77
2022-09-16T07:43:19.998Z,8.85
2022-09-16T07:46:13.697Z,15.82
2022-09-16T07:49:06.586Z,16.27
2022-09-16T07:51:59.818Z,10.57
2022-09-16T07:54:53.139Z,15.35
2022-09-16T07:57:46.618Z,11.18
2022-09-16T08:00:36.648Z,10.25
2022-09-16T08:03:32.239Z,9.88
2022-09-16T08:06:32.266Z,12.80
2022-09-16T08:09:38.724Z,10.25
2022-09-16T08:12:37.514Z,14.48
2022-09-16T08:15:28.565Z,10.75
2022-09-16T08:18:18.956Z,13.35
2022-09-16T08:21:11.741Z,9.25
2022-09-16T08:24:02.981Z,10.48
2022-09-16T08:26:57.803Z,11.18
2022-09-16T08:29:48.527Z,16.42
2022-09-16T08:32:38.682Z,9.07
2022-09-16T08:35:34.197Z,22.13
2022-09-16T08:38:25.741Z,13.38
2022-09-16T08:41:17.899Z,19.00
2022-09-16T08:44:44.949Z,19.60
2022-09-16T08:47:35.841Z,16.48
2022-09-16T08:50:37.341Z,19.50
2022-09-16T08:53:44.449Z,18.35
2022-09-16T08:56:39.461Z,12.88
2022-09-16T08:59:46.923Z,12.15
2022-09-16T09:02:51.199Z,16.73
2022-09-16T09:05:59.860Z,16.08
2022-09-16T09:09:30.795Z,17.83
2022-09-16T09:12:21.693Z,18.40
2022-09-16T09:15:36.897Z,15.23
2022-09-16T09:18:45.071Z,12.98
2022-09-16T09:21:57.152Z,31.05
2022-09-16T09:24:57.701Z,18.48
2022-09-16T09:28:03.618Z,26.42
2022-09-16T09:34:38.351Z,17.33
2022-09-16T09:37:51.401Z,14.88
2022-09-16T09:41:13.553Z,10.82
2022-09-16T09:44:32.357Z,11.07
2022-09-16T09:47:43.209Z,16.15
2022-09-16T09:50:48.666Z,17.95
2022-09-16T09:53:45.519Z,42.85
2022-09-16T09:56:39.939Z,24.60
2022-09-16T09:59:34.144Z,16.75
2022-09-16T10:02:26.238Z,9.32
2022-09-16T10:05:37.608Z,16.35
2022-09-16T10:08:45.216Z,19.13
2022-09-16T10:11:38.441Z,17.30
2022-09-16T10:14:28.983Z,11.88
2022-09-16T10:17:20.468Z,13.52
2022-09-16T10:20:32.438Z,14.60
2022-09-16T10:23:29.640Z,15.80
2022-09-16T10:26:26.168Z,11.82
2022-09-16T10:29:26.936Z,12.23
2022-09-16T10:32:25.725Z,16.13
2022-09-16T10:35:26.228Z,13.65
2022-09-16T10:38:20.385Z,13.82
2022-09-16T10:44:34.773Z,14.23
2022-09-16T10:47:33.512Z,18.70
2022-09-16T10:50:27.817Z,19.10
2022-09-16T10:53:30.401Z,16.63
2022-09-16T10:56:24.826Z,13.55
2022-09-16T10:59:17.071Z,17.40
2022-09-16T11:02:34.565Z,20.73
2022-09-16T11:05:44.063Z,12.40
2022-09-16T11:08:44.557Z,16.00
2022-09-16T11:11:49.667Z,18.98
2022-09-16T11:14:50.297Z,15.57
2022-09-16T11:18:08.283Z,17.23
2022-09-16T11:21:16.858Z,13.63
2022-09-16T11:24:45.704Z,10.77
2022-09-16T11:28:20.982Z,8.00
2022-09-16T11:31:23.687Z,11.10
2022-09-16T11:34:20.250Z,15.45
2022-09-16T11:37:20.664Z,15.77
2022-09-16T11:40:25.718Z,15.60
2022-09-16T11:43:41.422Z,12.68
2022-09-16T11:47:00.846Z,15.15
2022-09-16T11:50:25.943Z,9.15
2022-09-16T11:53:51.483Z,11.93
2022-09-16T11:56:58.868Z,8.15
2022-09-16T12:00:00.330Z,8.30
2022-09-16T12:03:07.415Z,13.67
2022-09-16T12:06:07.031Z,16.23
2022-09-16T12:09:28.448Z,12.88
2022-09-16T12:12:22.433Z,17.77
2022-09-16T12:15:19.261Z,13.02
2022-09-16T12:18:21.740Z,11.00
2022-09-16T12:21:27.263Z,6.55
2022-09-16T12:24:39.924Z,7.85
2022-09-16T12:27:36.713Z,14.70
2022-09-16T12:30:44.294Z,16.13
2022-09-16T12:33:43.387Z,10.23
2022-09-16T12:36:37.607Z,11.25
2022-09-16T12:39:28.244Z,13.82
2022-09-16T12:42:24.728Z,11.05
2022-09-16T12:45:39.963Z,13.88
2022-09-16T12:49:11.825Z,9.40
2022-09-16T12:52:21.253Z,11.52
2022-09-16T12:55:52.718Z,18.15
2022-09-16T12:59:23.624Z,15.82
2022-09-16T13:02:22.576Z,16.35
2022-09-16T13:05:39.836Z,15.63
2022-09-16T13:08:36.243Z,12.93
2022-09-16T13:14:57.026Z,9.88
2022-09-16T13:17:50.858Z,10.35
2022-09-16T13:20:55.463Z,8.52
2022-09-16T13:23:52.769Z,8.18
2022-09-16T13:26:49.176Z,10.75
2022-09-16T13:29:42.453Z,12.85
2022-09-16T13:33:04.244Z,12.27
2022-09-16T13:36:20.860Z,10.15
2022-09-16T13:39:32.132Z,12.52
2022-09-16T13:42:25.305Z,13.10
2022-09-16T13:45:40.754Z,13.27
2022-09-16T13:48:39.142Z,14.02
2022-09-16T13:51:35.346Z,15.93
2022-09-16T13:54:33.083Z,12.40
2022-09-16T13:57:40.380Z,9.50
2022-09-16T14:00:40.715Z,10.52
2022-09-16T14:03:47.804Z,15.27
2022-09-16T14:07:06.206Z,11.93
2022-09-16T14:10:03.371Z,7.50
2022-09-16T14:12:58.465Z,12.82
2022-09-16T14:15:53.031Z,11.43
2022-09-16T14:18:46.884Z,19.27
2022-09-16T14:21:45.347Z,11.82
2022-09-16T14:24:42.543Z,11.32
2022-09-16T14:27:42.850Z,13.05
2022-09-16T14:30:33.988Z,11.02
2022-09-16T14:33:31.873Z,18.10
2022-09-16T14:36:43.438Z,15.95
2022-09-16T14:39:36.520Z,15.27
2022-09-16T14:42:28.380Z,16.23
2022-09-16T14:45:22.923Z,13.93
2022-09-16T14:48:14.703Z,13.63
2022-09-16T14:51:05.855Z,18.15
2022-09-16T14:54:12.264Z,15.10
2022-09-16T14:57:18.031Z,19.10
2022-09-16T15:00:18.795Z,12.15
2022-09-16T15:03:27.113Z,14.52
2022-09-16T15:06:26.480Z,18.10
2022-09-16T15:10:05.166Z,9.98
2022-09-16T15:13:04.623Z,9.18
2022-09-16T15:19:21.267Z,19.23
2022-09-16T15:22:18.866Z,10.40
2022-09-16T15:25:24.984Z,12.60
2022-09-16T15:28:24.889Z,8.93
2022-09-16T15:31:17.889Z,8.90
2022-09-16T15:34:32.369Z,16.85
2022-09-16T15:37:37.362Z,13.55
2022-09-16T15:43:41.706Z,10.35
2022-09-16T15:46:33.181Z,17.20
2022-09-16T15:49:28.441Z,9.90
2022-09-16T15:52:20.389Z,9.65
2022-09-16T15:55:12.216Z,9.88
2022-09-16T15:58:20.062Z,13.60
2022-09-16T16:01:19.647Z,18.42
2022-09-16T16:04:14.362Z,9.13
2022-09-16T16:07:07.344Z,7.97
2022-09-16T16:09:58.232Z,7.78
2022-09-16T16:12:55.132Z,11.30
2022-09-16T16:15:47.565Z,9.82
2022-09-16T16:18:39.489Z,7.93
2022-09-16T16:21:30.693Z,8.07
2022-09-16T16:24:22.098Z,10.15
2022-09-16T16:27:12.575Z,16.20
2022-09-16T16:30:03.052Z,9.65
2022-09-16T16:32:55.509Z,17.08
2022-09-16T16:35:45.840Z,12.45
2022-09-16T16:38:38.306Z,10.30
2022-09-16T16:41:31.980Z,17.00
2022-09-16T16:44:24.071Z,9.20
2022-09-16T16:47:14.778Z,9.02
2022-09-16T16:50:05.695Z,8.40
2022-09-16T16:52:57.518Z,13.07
2022-09-16T16:55:49.203Z,10.32
2022-09-16T16:58:46.404Z,11.05
2022-09-16T17:01:37.219Z,13.13
2022-09-16T17:04:31.093Z,12.30
2022-09-16T17:07:28.368Z,16.27
2022-09-16T17:10:19.421Z,9.95
2022-09-16T17:13:11.166Z,11.20
2022-09-16T17:16:04.477Z,10.00
2022-09-16T17:18:56.052Z,13.40
2022-09-16T17:21:49.843Z,11.52
2022-09-16T17:24:43.215Z,17.77
2022-09-16T17:27:38.757Z,17.90
2022-09-16T17:30:29.381Z,20.20
2022-09-16T17:33:20.078Z,20.67
2022-09-16T17:36:15.783Z,19.25
2022-09-16T17:39:17.376Z,20.27
2022-09-16T17:42:11.218Z,19.83
2022-09-16T17:45:07.618Z,22.08
2022-09-16T17:47:59.873Z,25.13
2022-09-16T17:50:54.459Z,24.65
2022-09-16T17:53:45.769Z,23.65
2022-09-16T17:56:36.810Z,27.33
2022-09-16T17:59:27.792Z,25.58
2022-09-16T18:02:18.037Z,21.23
2022-09-16T18:05:10.865Z,24.42
2022-09-16T18:08:00.761Z,26.13
2022-09-16T18:10:56.973Z,21.40
2022-09-16T18:13:48.744Z,18.25
2022-09-16T18:16:39.821Z,15.30
2022-09-16T18:19:31.405Z,18.63
2022-09-16T18:22:22.156Z,15.93
2022-09-16T18:25:14.627Z,17.10
2022-09-16T18:28:05.820Z,15.50
2022-09-16T18:31:08.642Z,18.15
2022-09-16T18:33:59.804Z,18.55
2022-09-16T18:36:50.203Z,20.80
2022-09-16T18:39:40.348Z,17.95
2022-09-16T18:42:30.540Z,18.45
2022-09-16T18:45:21.058Z,20.95
2022-09-16T18:48:12.413Z,20.02
2022-09-16T18:51:03.965Z,23.02
2022-09-16T18:53:57.232Z,20.50
2022-09-16T18:56:50.637Z,22.30
2022-09-16T18:59:40.520Z,25.13
2022-09-16T19:02:30.453Z,22.30
2022-09-16T19:05:20.778Z,22.75
2022-09-16T19:08:11.151Z,22.40
2022-09-16T19:11:07.858Z,22.67
2022-09-16T19:13:58.630Z,24.98
2022-09-16T19:16:49.074Z,23.08
2022-09-16T19:19:39.263Z,24.10
2022-09-16T19:22:29.436Z,24.00
2022-09-16T19:25:19.427Z,23.77
2022-09-16T19:28:09.465Z,23.80
2022-09-16T19:31:10.223Z,24.70
2022-09-16T19:34:01.059Z,24.77
2022-09-16T19:36:51.498Z,23.50
2022-09-16T19:39:41.269Z,26.55
2022-09-16T19:42:34.600Z,28.67
2022-09-16T19:45:27.900Z,27.92
2022-09-16T19:48:18.898Z,26.30
2022-09-16T19:51:14.115Z,25.48
2022-09-16T19:54:04.525Z,25.13
2022-09-16T19:56:54.792Z,25.73
2022-09-16T19:59:47.192Z,22.95
2022-09-16T20:02:38.587Z,22.95
2022-09-16T20:05:31.407Z,23.63
2022-09-16T20:08:21.621Z,21.35
2022-09-16T20:11:20.364Z,23.67
2022-09-16T20:14:15.247Z,23.70
2022-09-16T20:17:05.813Z,23.67
2022-09-16T20:19:55.511Z,23.90
2022-09-16T20:22:45.570Z,23.40
2022-09-16T20:25:38.281Z,23.52
2022-09-16T20:28:33.604Z,25.25
2022-09-16T20:31:29.398Z,24.10
2022-09-16T20:34:19.527Z,24.58
2022-09-16T20:37:09.837Z,26.15
2022-09-16T20:39:59.767Z,30.70
2022-09-16T20:42:51.145Z,23.05
2022-09-16T20:45:41.667Z,23.40
2022-09-16T20:48:32.055Z,23.73
2022-09-16T20:51:23.971Z,20.50
2022-09-16T20:54:15.791Z,21.33
2022-09-16T20:57:06.530Z,18.38
2022-09-16T20:59:57.755Z,23.73
2022-09-16T21:02:47.969Z,17.60
2022-09-16T21:05:37.845Z,17.85
2022-09-16T21:08:33.258Z,19.48
2022-09-16T21:11:24.638Z,16.73
2022-09-16T21:14:17.482Z,17.95
2022-09-16T21:17:07.296Z,18.90
2022-09-16T21:19:57.105Z,13.82
2022-09-16T21:22:47.936Z,13.45
2022-09-16T21:25:39.205Z,15.35
2022-09-16T21:28:29.334Z,12.95
2022-09-16T21:31:19.982Z,17.25
2022-09-16T21:34:16.985Z,16.92
2022-09-16T21:37:07.570Z,16.35
2022-09-16T21:39:57.762Z,17.33
2022-09-16T21:42:48.310Z,18.02
2022-09-16T21:45:45.963Z,17.33
2022-09-16T21:48:36.619Z,17.80
2022-09-16T21:51:27.162Z,16.13
2022-09-16T21:54:20.575Z,16.40
2022-09-16T21:57:10.811Z,13.30
2022-09-16T22:00:00.841Z,15.68
2022-09-16T22:02:58.582Z,14.10
2022-09-16T22:05:48.637Z,13.95
2022-09-16T22:08:39.047Z,10.50
2022-09-16T22:11:32.542Z,10.63
2022-09-16T22:14:22.970Z,11.20
2022-09-16T22:17:13.002Z,11.27
2022-09-16T22:20:03.051Z,10.05
2022-09-16T22:22:53.219Z,10.90
2022-09-16T22:25:43.727Z,7.65
2022-09-16T22:28:33.463Z,10.05
2022-09-16T22:31:31.930Z,7.00
2022-09-16T22:34:22.721Z,8.20
2022-09-16T22:37:13.417Z,8.35
2022-09-16T22:40:03.558Z,9.57
2022-09-16T22:42:53.850Z,7.22
2022-09-16T22:45:44.228Z,11.55
2022-09-16T22:48:34.238Z,14.75
2022-09-16T22:51:25.711Z,20.77
2022-09-16T22:54:17.403Z,11.88
2022-09-16T22:57:07.295Z,11.63
2022-09-16T22:59:57.023Z,10.95
2022-09-16T23:02:47.463Z,10.45
2022-09-16T23:05:37.373Z,10.18
2022-09-16T23:08:27.980Z,10.73
2022-09-16T23:11:21.318Z,9.75
2022-09-16T23:14:15.848Z,11.82
2022-09-16T23:17:05.881Z,9.00
2022-09-16T23:19:56.769Z,12.40
2022-09-16T23:22:47.451Z,9.95
2022-09-16T23:25:37.683Z,10.00
2022-09-16T23:28:27.916Z,11.23
2022-09-16T23:31:19.487Z,8.48
2022-09-16T23:34:13.607Z,9.32
2022-09-16T23:37:05.955Z,10.95
2022-09-16T23:39:56.541Z,10.30
2022-09-16T23:42:47.854Z,11.80
2022-09-16T23:45:39.998Z,11.85
2022-09-16T23:48:30.656Z,14.25
2022-09-16T23:51:27.951Z,17.35
2022-09-16T23:54:19.108Z,16.55
2022-09-16T23:57:09.868Z,18.85
